createdAt,value
2023-06-26T00:00:29.821Z,45.62988
2023-06-26T00:00:59.843Z,45.6416
2023-06-26T00:01:29.900Z,45.74219
2023-06-26T00:01:59.835Z,45.00488
2023-06-26T00:02:29.854Z,45.38184
2023-06-26T00:02:59.932Z,45.2168
2023-06-26T00:03:29.861Z,45.12012
2023-06-26T00:03:59.860Z,45.23047
2023-06-26T00:04:29.828Z,45.36426
2023-06-26T00:04:59.827Z,45.29785
2023-06-26T00:05:29.829Z,45.99023
2023-06-26T00:05:59.828Z,45.63867
2023-06-26T00:06:29.828Z,45.32129
2023-06-26T00:06:59.914Z,45.5
2023-06-26T00:07:29.901Z,45.16895
2023-06-26T00:07:59.823Z,45.74219
2023-06-26T00:08:29.958Z,45.62109
2023-06-26T00:09:00.066Z,45.65234
2023-06-26T00:09:29.857Z,45.46387
2023-06-26T00:10:00.081Z,45.75781
2023-06-26T00:10:29.831Z,46.32813
2023-06-26T00:10:59.837Z,46.40332
2023-06-26T00:11:29.843Z,45.75293
2023-06-26T00:11:59.840Z,45.81934
2023-06-26T00:12:29.825Z,46.04883
2023-06-26T00:12:59.850Z,46.05664
2023-06-26T00:13:29.828Z,45.9668
2023-06-26T00:13:59.834Z,45.7998
2023-06-26T00:14:29.833Z,46.04395
2023-06-26T00:14:59.857Z,46.07617
2023-06-26T00:15:29.839Z,46.04297
2023-06-26T00:15:59.831Z,45.51367
2023-06-26T00:16:29.863Z,45.63574
2023-06-26T00:16:59.855Z,46.02344
2023-06-26T00:17:29.863Z,46.08398
2023-06-26T00:17:59.882Z,45.45801
2023-06-26T00:18:29.843Z,45.36035
2023-06-26T00:18:59.833Z,45.85938
2023-06-26T00:19:29.825Z,45.45117
2023-06-26T00:19:59.840Z,45.89063
2023-06-26T00:20:29.827Z,45.38379
2023-06-26T00:20:59.849Z,44.95605
2023-06-26T00:21:29.834Z,44.54883
2023-06-26T00:21:59.842Z,45.54395
2023-06-26T00:22:29.830Z,45.3916
2023-06-26T00:22:59.848Z,45.22754
2023-06-26T00:23:29.840Z,45.52734
2023-06-26T00:23:59.828Z,45.35449
2023-06-26T00:24:29.831Z,45.18945
2023-06-26T00:24:59.837Z,45.33203
2023-06-26T00:25:29.832Z,45.48633
2023-06-26T00:25:59.831Z,45.41992
2023-06-26T00:26:29.830Z,45.46484
2023-06-26T00:26:59.833Z,45.38867
2023-06-26T00:27:29.832Z,45.1709
2023-06-26T00:27:59.831Z,44.58984
2023-06-26T00:28:29.832Z,44.85938
2023-06-26T00:28:59.835Z,44.80566
2023-06-26T00:29:29.836Z,45.00391
2023-06-26T00:29:59.834Z,45.13379
2023-06-26T00:30:29.851Z,45.04395
2023-06-26T00:30:59.842Z,44.84668
2023-06-26T00:31:29.858Z,44.98926
2023-06-26T00:31:59.836Z,44.50781
2023-06-26T00:32:29.909Z,44.56641
2023-06-26T00:32:59.865Z,44.45898
2023-06-26T00:33:29.876Z,44.8125
2023-06-26T00:33:59.854Z,45.20898
2023-06-26T00:34:29.838Z,44.88867
2023-06-26T00:34:59.836Z,44.86816
2023-06-26T00:35:29.850Z,44.83496
2023-06-26T00:35:59.838Z,44.79297
2023-06-26T00:36:29.836Z,44.9375
2023-06-26T00:36:59.844Z,45.11328
2023-06-26T00:37:29.848Z,44.01172
2023-06-26T00:37:59.842Z,44.70703
2023-06-26T00:38:29.839Z,45.11523
2023-06-26T00:38:59.854Z,44.96289
2023-06-26T00:39:29.841Z,45.18555
2023-06-26T00:39:59.838Z,45.2627
2023-06-26T00:40:29.858Z,45.04199
2023-06-26T00:40:59.840Z,45.05176
2023-06-26T00:41:29.842Z,45.46094
2023-06-26T00:41:59.845Z,45.52637
2023-06-26T00:42:29.844Z,45.06445
2023-06-26T00:42:59.848Z,45.27246
2023-06-26T00:43:29.841Z,45.72266
2023-06-26T00:43:59.840Z,45.62305
2023-06-26T00:44:29.846Z,45.54297
2023-06-26T00:44:59.843Z,45.28711
2023-06-26T00:45:38.422Z,45.2207
2023-06-26T00:46:01.044Z,45.60742
2023-06-26T00:46:29.843Z,45.46387
2023-06-26T00:46:59.847Z,45.69629
2023-06-26T00:47:29.856Z,45.49707
2023-06-26T00:47:59.878Z,45.23242
2023-06-26T00:48:29.854Z,45.47461
2023-06-26T00:48:59.841Z,45.5752
2023-06-26T00:49:29.901Z,45.88477
2023-06-26T00:49:59.844Z,44.7168
2023-06-26T00:50:29.844Z,45.09473
2023-06-26T00:50:59.856Z,45.37109
2023-06-26T00:51:29.847Z,45.33789
2023-06-26T00:51:59.852Z,44.9873
2023-06-26T00:52:29.863Z,45.19629
2023-06-26T00:52:59.849Z,45.41504
2023-06-26T00:53:29.846Z,45.63574
2023-06-26T00:53:59.857Z,45.38184
2023-06-26T00:54:29.848Z,45.39258
2023-06-26T00:54:59.845Z,45.17188
2023-06-26T00:55:29.849Z,45.69727
2023-06-26T00:55:59.844Z,45.34473
2023-06-26T00:56:29.845Z,45.33398
2023-06-26T00:56:59.859Z,45.57422
2023-06-26T00:57:29.849Z,45.77148
2023-06-26T00:57:59.852Z,45.60742
2023-06-26T00:58:29.844Z,45.47754
2023-06-26T00:58:59.846Z,46.07227
2023-06-26T00:59:29.847Z,45.80664
2023-06-26T00:59:59.867Z,46.13379
2023-06-26T01:00:29.845Z,46.1748
2023-06-26T01:00:59.848Z,46.16211
2023-06-26T01:01:29.849Z,46.31445
2023-06-26T01:01:59.861Z,45.93945
2023-06-26T01:02:29.906Z,45.87695
2023-06-26T01:02:59.926Z,45.94629
2023-06-26T01:03:29.896Z,45.9668
2023-06-26T01:03:59.854Z,46.01367
2023-06-26T01:04:29.849Z,45.66211
2023-06-26T01:04:59.848Z,45.52344
2023-06-26T01:05:29.850Z,45.71289
2023-06-26T01:05:59.847Z,45.91406
2023-06-26T01:06:29.844Z,45.42871
2023-06-26T01:06:59.854Z,45.83594
2023-06-26T01:07:29.896Z,46.13086
2023-06-26T01:07:59.860Z,46.61523
2023-06-26T01:08:29.855Z,46.53711
2023-06-26T01:08:59.845Z,46.10938
2023-06-26T01:09:29.847Z,46.27539
2023-06-26T01:09:59.854Z,46.21094
2023-06-26T01:10:29.854Z,45.61426
2023-06-26T01:10:59.845Z,46.17676
2023-06-26T01:11:29.851Z,46.24512
2023-06-26T01:11:59.862Z,46.54297
2023-06-26T01:12:29.856Z,46.15625
2023-06-26T01:12:59.862Z,46.04785
2023-06-26T01:13:29.853Z,46.24805
2023-06-26T01:13:59.851Z,46.00488
2023-06-26T01:14:29.847Z,46.50879
2023-06-26T01:14:59.852Z,46.74805
2023-06-26T01:15:29.853Z,46.61426
2023-06-26T01:15:59.859Z,46.88672
2023-06-26T01:16:29.852Z,46.74023
2023-06-26T01:16:59.849Z,46.50879
2023-06-26T01:17:29.884Z,46.48633
2023-06-26T01:17:59.873Z,46.69531
2023-06-26T01:18:29.859Z,46.68359
2023-06-26T01:18:59.855Z,46.22266
2023-06-26T01:19:29.879Z,45.92871
2023-06-26T01:19:59.852Z,46.92969
2023-06-26T01:20:29.847Z,46.12598
2023-06-26T01:20:59.850Z,46.66602
2023-06-26T01:21:29.850Z,46.48926
2023-06-26T01:21:59.851Z,46.4668
2023-06-26T01:22:29.846Z,46.96094
2023-06-26T01:22:59.848Z,46.86914
2023-06-26T01:23:29.854Z,46.3623
2023-06-26T01:23:59.849Z,46.56934
2023-06-26T01:24:29.863Z,46.7666
2023-06-26T01:24:59.853Z,46.60059
2023-06-26T01:25:29.847Z,46.4043
2023-06-26T01:25:59.853Z,46.33008
2023-06-26T01:26:29.855Z,46.21387
2023-06-26T01:26:59.851Z,46.27148
2023-06-26T01:27:29.849Z,45.7998
2023-06-26T01:27:59.852Z,46.27539
2023-06-26T01:28:29.851Z,45.81543
2023-06-26T01:28:59.854Z,46.0293
2023-06-26T01:29:29.853Z,46.18457
2023-06-26T01:29:59.850Z,46.48242
2023-06-26T01:30:29.864Z,46.86914
2023-06-26T01:30:59.850Z,46.81445
2023-06-26T01:31:29.873Z,46.71387
2023-06-26T01:31:59.892Z,46.30664
2023-06-26T01:32:29.873Z,46.51563
2023-06-26T01:32:59.910Z,46.12988
2023-06-26T01:33:29.856Z,47.34961
2023-06-26T01:33:59.854Z,47.10352
2023-06-26T01:34:29.859Z,46.8584
2023-06-26T01:34:59.856Z,46.50977
2023-06-26T01:35:29.855Z,46.71191
2023-06-26T01:35:59.873Z,46.52832
2023-06-26T01:36:29.866Z,46.1377
2023-06-26T01:36:59.879Z,46.2002
2023-06-26T01:37:29.864Z,46.49902
2023-06-26T01:37:59.865Z,45.87305
2023-06-26T01:38:29.857Z,46.2373
2023-06-26T01:38:59.863Z,46.14941
2023-06-26T01:39:29.854Z,45.71973
2023-06-26T01:39:59.873Z,46.21582
2023-06-26T01:40:29.857Z,46.37109
2023-06-26T01:40:59.877Z,46.45996
2023-06-26T01:41:29.861Z,46.40234
2023-06-26T01:41:59.857Z,46.07324
2023-06-26T01:42:29.860Z,45.8877
2023-06-26T01:42:59.856Z,45.43652
2023-06-26T01:43:29.880Z,46.13477
2023-06-26T01:43:59.864Z,45.13086
2023-06-26T01:44:29.865Z,45.82813
2023-06-26T01:44:59.860Z,45.21387
2023-06-26T01:45:29.866Z,45.83398
2023-06-26T01:45:59.949Z,46.13086
2023-06-26T01:46:29.996Z,46.04297
2023-06-26T01:46:59.860Z,46.5918
2023-06-26T01:47:30.090Z,46.35059
2023-06-26T01:47:59.880Z,45.91113
2023-06-26T01:48:29.864Z,45.79395
2023-06-26T01:48:59.860Z,45.79785
2023-06-26T01:49:29.883Z,46.47656
2023-06-26T01:49:59.862Z,46.73828
2023-06-26T01:50:29.859Z,46.19824
2023-06-26T01:50:59.862Z,45.44141
2023-06-26T01:51:29.864Z,45.75391
2023-06-26T01:51:59.881Z,45.68652
2023-06-26T01:52:29.865Z,45.54688
2023-06-26T01:52:59.862Z,45.74707
2023-06-26T01:53:29.860Z,45.25488
2023-06-26T01:53:59.871Z,44.81934
2023-06-26T01:54:29.864Z,45.22266
2023-06-26T01:54:59.878Z,45.53516
2023-06-26T01:55:29.889Z,45.62402
2023-06-26T01:55:59.873Z,45.24902
2023-06-26T01:56:29.868Z,45.80176
2023-06-26T01:56:59.875Z,45.71191
2023-06-26T01:57:29.868Z,45.35938
2023-06-26T01:57:59.943Z,45.60449
2023-06-26T01:58:29.962Z,45.31934
2023-06-26T01:58:59.866Z,45.24414
2023-06-26T01:59:29.871Z,45.62109
2023-06-26T01:59:59.866Z,45.5
2023-06-26T02:00:29.871Z,45.66699
2023-06-26T02:00:59.894Z,45.37012
2023-06-26T02:01:29.982Z,45.88965
2023-06-26T02:01:59.892Z,46.05566
2023-06-26T02:02:29.937Z,45.69824
2023-06-26T02:02:59.991Z,45.0459
2023-06-26T02:03:29.973Z,45.85156
2023-06-26T02:03:59.918Z,45.74121
2023-06-26T02:04:29.878Z,44.93555
2023-06-26T02:04:59.900Z,45.46582
2023-06-26T02:05:29.865Z,45.34668
2023-06-26T02:05:59.868Z,45.04297
2023-06-26T02:06:29.868Z,44.71289
2023-06-26T02:06:59.930Z,44.92578
2023-06-26T02:07:29.908Z,44.28711
2023-06-26T02:07:59.880Z,45.26758
2023-06-26T02:08:29.872Z,45.27832
2023-06-26T02:08:59.878Z,44.44238
2023-06-26T02:09:29.877Z,44.55664
2023-06-26T02:09:59.877Z,44.25098
2023-06-26T02:10:29.868Z,44.75977
2023-06-26T02:10:59.872Z,44.67969
2023-06-26T02:11:29.872Z,45.86426
2023-06-26T02:11:59.873Z,45.5459
2023-06-26T02:12:29.866Z,45.34473
2023-06-26T02:12:59.880Z,44.90625
2023-06-26T02:13:29.870Z,45.12109
2023-06-26T02:13:59.871Z,45.00488
2023-06-26T02:14:29.869Z,44.75586
2023-06-26T02:14:59.869Z,44.19727
2023-06-26T02:15:29.867Z,43.64941
2023-06-26T02:15:59.872Z,44.71094
2023-06-26T02:16:29.869Z,44.8916
2023-06-26T02:16:59.871Z,44.60449
2023-06-26T02:17:29.903Z,44.37109
2023-06-26T02:17:59.876Z,44.42969
2023-06-26T02:18:29.867Z,44.40039
2023-06-26T02:18:59.868Z,44.55469
2023-06-26T02:19:29.869Z,44.92773
2023-06-26T02:19:59.897Z,44.69238
2023-06-26T02:20:29.876Z,44.82227
2023-06-26T02:20:59.868Z,44.83301
2023-06-26T02:21:29.874Z,44.77637
2023-06-26T02:21:59.875Z,44.36914
2023-06-26T02:22:29.910Z,44.31641
2023-06-26T02:22:59.873Z,44.49707
2023-06-26T02:23:29.924Z,44.49023
2023-06-26T02:23:59.870Z,43.94531
2023-06-26T02:24:29.868Z,43.91895
2023-06-26T02:24:59.866Z,43.53516
2023-06-26T02:25:29.875Z,43.65137
2023-06-26T02:25:59.878Z,43.55859
2023-06-26T02:26:29.872Z,43.67383
2023-06-26T02:26:59.875Z,42.98145
2023-06-26T02:27:29.878Z,43.40234
2023-06-26T02:27:59.871Z,42.9502
2023-06-26T02:28:29.876Z,43.42871
2023-06-26T02:28:59.871Z,43.10938
2023-06-26T02:29:29.891Z,43.34277
2023-06-26T02:29:59.868Z,43.33105
2023-06-26T02:30:29.875Z,42.52539
2023-06-26T02:30:59.895Z,42.32031
2023-06-26T02:31:29.889Z,42.6123
2023-06-26T02:31:59.874Z,42.58105
2023-06-26T02:32:29.874Z,42.79102
2023-06-26T02:32:59.909Z,43.25684
2023-06-26T02:33:29.883Z,43.14844
2023-06-26T02:33:59.873Z,42.61719
2023-06-26T02:34:29.879Z,42.70801
2023-06-26T02:34:59.876Z,42.97461
2023-06-26T02:35:29.871Z,42.98535
2023-06-26T02:35:59.875Z,42.74121
2023-06-26T02:36:29.881Z,42.35938
2023-06-26T02:36:59.874Z,42.16406
2023-06-26T02:37:29.884Z,42.26855
2023-06-26T02:37:59.876Z,42.36621
2023-06-26T02:38:29.885Z,42.42285
2023-06-26T02:38:59.881Z,42.45801
2023-06-26T02:39:29.878Z,41.77441
2023-06-26T02:39:59.884Z,41.26953
2023-06-26T02:40:29.874Z,41.22168
2023-06-26T02:40:59.873Z,41.31543
2023-06-26T02:41:29.875Z,41.44238
2023-06-26T02:41:59.890Z,41.25879
2023-06-26T02:42:29.870Z,41.96191
2023-06-26T02:42:59.872Z,40.97461
2023-06-26T02:43:29.884Z,41.19727
2023-06-26T02:43:59.877Z,41.21094
2023-06-26T02:44:29.876Z,40.70117
2023-06-26T02:44:59.876Z,40.66016
2023-06-26T02:45:29.896Z,41.17188
2023-06-26T02:45:59.883Z,40.26172
2023-06-26T02:46:29.908Z,41.29395
2023-06-26T02:46:59.959Z,41.15039
2023-06-26T02:47:29.960Z,41.01758
2023-06-26T02:47:59.893Z,41.19336
2023-06-26T02:48:29.887Z,41.06055
2023-06-26T02:48:59.875Z,41.15039
2023-06-26T02:49:29.886Z,41.04199
2023-06-26T02:49:59.905Z,40.58008
2023-06-26T02:50:29.878Z,40.57324
2023-06-26T02:50:59.898Z,41.01465
2023-06-26T02:51:29.903Z,40.86914
2023-06-26T02:51:59.881Z,40.93848
2023-06-26T02:52:29.891Z,40.50684
2023-06-26T02:52:59.889Z,40.45508
2023-06-26T02:53:29.882Z,41.02148
2023-06-26T02:53:59.878Z,40.7998
2023-06-26T02:54:29.888Z,40.85645
2023-06-26T02:54:59.882Z,40.84863
2023-06-26T02:55:29.917Z,40.30957
2023-06-26T02:55:59.888Z,40.34766
2023-06-26T02:56:29.916Z,40.78223
2023-06-26T02:56:59.881Z,40.73828
2023-06-26T02:57:29.915Z,40.39453
2023-06-26T02:57:59.898Z,40.50391
2023-06-26T02:58:29.893Z,40.56836
2023-06-26T02:58:59.902Z,40.83398
2023-06-26T02:59:29.893Z,40.6543
2023-06-26T02:59:59.898Z,41.00781
2023-06-26T03:00:30.040Z,40.74219
2023-06-26T03:00:59.906Z,40.61133
2023-06-26T03:01:29.895Z,40.83984
2023-06-26T03:01:59.889Z,41.15723
2023-06-26T03:02:29.918Z,41.28906
2023-06-26T03:02:59.914Z,40.7666
2023-06-26T03:03:29.904Z,40.49121
2023-06-26T03:03:59.919Z,40.88086
2023-06-26T03:04:29.947Z,41.32129
2023-06-26T03:04:59.893Z,41.28613
2023-06-26T03:05:29.881Z,40.91113
2023-06-26T03:05:59.887Z,41.05566
2023-06-26T03:06:29.920Z,41.14844
2023-06-26T03:06:59.933Z,40.88379
2023-06-26T03:07:29.923Z,40.74219
2023-06-26T03:07:59.880Z,40.43555
2023-06-26T03:08:29.889Z,40.45313
2023-06-26T03:08:59.884Z,40.39941
2023-06-26T03:09:29.884Z,40.51367
2023-06-26T03:09:59.890Z,39.88477
2023-06-26T03:10:29.886Z,39.66699
2023-06-26T03:10:59.881Z,39.5957
2023-06-26T03:11:29.884Z,39.52246
2023-06-26T03:11:59.882Z,39.60254
2023-06-26T03:12:29.890Z,39.80371
2023-06-26T03:12:59.888Z,39.72656
2023-06-26T03:13:29.883Z,40.43652
2023-06-26T03:13:59.883Z,40.50781
2023-06-26T03:14:29.893Z,39.96973
2023-06-26T03:14:59.891Z,39.80273
2023-06-26T03:15:29.886Z,39.86914
2023-06-26T03:15:59.884Z,39.45117
2023-06-26T03:16:29.955Z,39.73438
2023-06-26T03:16:59.968Z,39.81055
2023-06-26T03:17:29.940Z,40.04102
2023-06-26T03:17:59.916Z,40.02832
2023-06-26T03:18:29.889Z,40.30664
2023-06-26T03:18:59.920Z,40.2002
2023-06-26T03:19:29.896Z,39.77344
2023-06-26T03:19:59.897Z,40.28125
2023-06-26T03:20:29.915Z,40.39551
2023-06-26T03:20:59.891Z,40.53223
2023-06-26T03:21:29.895Z,40.58594
2023-06-26T03:21:59.897Z,40.2627
2023-06-26T03:22:29.890Z,39.68945
2023-06-26T03:22:59.900Z,39.33398
2023-06-26T03:23:29.904Z,38.72168
2023-06-26T03:23:59.897Z,38.75586
2023-06-26T03:24:29.895Z,38.38965
2023-06-26T03:24:59.898Z,38.11133
2023-06-26T03:25:29.895Z,37.30957
2023-06-26T03:25:59.899Z,37.77441
2023-06-26T03:26:29.897Z,37.55762
2023-06-26T03:26:59.897Z,37.30469
2023-06-26T03:27:29.912Z,36.9209
2023-06-26T03:27:59.907Z,37.15918
2023-06-26T03:28:29.909Z,36.77832
2023-06-26T03:28:59.893Z,36.68652
2023-06-26T03:29:29.893Z,36.78223
2023-06-26T03:29:59.929Z,37.00098
2023-06-26T03:30:29.941Z,37.06836
2023-06-26T03:30:59.939Z,37.35254
2023-06-26T03:31:29.997Z,36.21875
2023-06-26T03:31:59.899Z,36.32129
2023-06-26T03:32:29.937Z,36.12207
2023-06-26T03:32:59.965Z,35.91406
2023-06-26T03:33:29.946Z,36.11719
2023-06-26T03:33:59.906Z,35.97656
2023-06-26T03:34:29.916Z,35.95996
2023-06-26T03:34:59.899Z,35.96484
2023-06-26T03:35:29.894Z,35.94629
2023-06-26T03:35:59.893Z,36.25977
2023-06-26T03:36:29.894Z,36.1123
2023-06-26T03:36:59.895Z,36.04785
2023-06-26T03:37:29.898Z,35.49219
2023-06-26T03:37:59.905Z,35.30664
2023-06-26T03:38:29.904Z,34.8584
2023-06-26T03:38:59.904Z,34.69922
2023-06-26T03:39:29.904Z,34.87695
2023-06-26T03:39:59.896Z,34.90625
2023-06-26T03:40:29.894Z,34.7373
2023-06-26T03:40:59.900Z,34.65918
2023-06-26T03:41:29.896Z,34.89648
2023-06-26T03:41:59.901Z,34.96875
2023-06-26T03:42:29.903Z,34.93652
2023-06-26T03:42:59.896Z,34.50195
2023-06-26T03:43:29.899Z,34.50586
2023-06-26T03:43:59.896Z,34.91895
2023-06-26T03:44:29.906Z,36.08398
2023-06-26T03:44:59.906Z,34.78027
2023-06-26T03:45:29.899Z,34.74609
2023-06-26T03:45:59.936Z,34.67871
2023-06-26T03:46:29.955Z,33.93164
2023-06-26T03:46:59.901Z,33.67383
2023-06-26T03:47:30.055Z,33.57813
2023-06-26T03:47:59.949Z,32.94434
2023-06-26T03:48:29.914Z,32.52637
2023-06-26T03:48:59.905Z,32.83691
2023-06-26T03:49:29.903Z,32.47559
2023-06-26T03:49:59.907Z,32.54688
2023-06-26T03:50:29.908Z,32.38379
2023-06-26T03:50:59.912Z,32.72754
2023-06-26T03:51:29.918Z,32.45996
2023-06-26T03:51:59.906Z,32.63086
2023-06-26T03:52:29.903Z,33.05859
2023-06-26T03:52:59.909Z,32.34668
2023-06-26T03:53:29.909Z,30.68066
2023-06-26T03:53:59.905Z,28.375
2023-06-26T03:54:29.903Z,25.98633
2023-06-26T03:54:59.905Z,23.44922
2023-06-26T03:55:29.906Z,21.63281
2023-06-26T03:55:59.909Z,20.14844
2023-06-26T03:56:29.904Z,19.08594
2023-06-26T03:56:59.907Z,18.37109
2023-06-26T03:57:29.901Z,18.30957
2023-06-26T03:57:59.907Z,17.80762
2023-06-26T03:58:29.909Z,17.89746
2023-06-26T03:58:59.916Z,16.99414
2023-06-26T03:59:29.909Z,16.4834
2023-06-26T03:59:59.909Z,15.83301
2023-06-26T04:00:29.909Z,15.11133
2023-06-26T04:00:59.904Z,14.76953
2023-06-26T04:01:29.952Z,14.43652
2023-06-26T04:01:59.969Z,13.70898
2023-06-26T04:02:29.942Z,14.25391
2023-06-26T04:02:59.939Z,13.64648
2023-06-26T04:03:29.923Z,13.22656
2023-06-26T04:03:59.922Z,12.50684
2023-06-26T04:04:29.912Z,11.94824
2023-06-26T04:04:59.918Z,12.11523
2023-06-26T04:05:29.923Z,11.45898
2023-06-26T04:05:59.908Z,10.91895
2023-06-26T04:06:29.909Z,11.10352
2023-06-26T04:06:59.935Z,10.80273
2023-06-26T04:07:31.329Z,10.55078
2023-06-26T04:07:59.916Z,10.0752
2023-06-26T04:08:29.924Z,10.16504
2023-06-26T04:08:59.915Z,10.20508
2023-06-26T04:09:29.911Z,9.750977
2023-06-26T04:09:59.904Z,9.580078
2023-06-26T04:10:29.930Z,9.185547
2023-06-26T04:11:00.011Z,9.097656
2023-06-26T04:11:29.914Z,8.794922
2023-06-26T04:11:59.912Z,9.306641
2023-06-26T04:12:29.910Z,8.750977
2023-06-26T04:12:59.910Z,9.037109
2023-06-26T04:13:29.915Z,8.813477
2023-06-26T04:13:59.916Z,8.506836
2023-06-26T04:14:29.960Z,8.379883
2023-06-26T04:14:59.909Z,8.136719
2023-06-26T04:15:29.912Z,7.832031
2023-06-26T04:15:59.915Z,7.919922
2023-06-26T04:16:29.908Z,7.84082
2023-06-26T04:16:59.912Z,7.711914
2023-06-26T04:17:30.016Z,7.890625
2023-06-26T04:18:00.007Z,7.689453
2023-06-26T04:18:29.921Z,8.021484
2023-06-26T04:18:59.914Z,8.197266
2023-06-26T04:19:29.925Z,8.504883
2023-06-26T04:19:59.912Z,8.37207
2023-06-26T04:20:29.912Z,8.323242
2023-06-26T04:20:59.923Z,8.229492
2023-06-26T04:21:29.919Z,8.727539
2023-06-26T04:21:59.923Z,8.535156
2023-06-26T04:22:29.915Z,8.145508
2023-06-26T04:22:59.923Z,8.0625
2023-06-26T04:23:29.917Z,8.408203
2023-06-26T04:23:59.917Z,8.231445
2023-06-26T04:24:29.919Z,8.267578
2023-06-26T04:24:59.919Z,8.162109
2023-06-26T04:25:29.927Z,8.243164
2023-06-26T04:25:59.914Z,8.774414
2023-06-26T04:26:29.918Z,8.488281
2023-06-26T04:26:59.913Z,8.709961
2023-06-26T04:27:29.929Z,8.494141
2023-06-26T04:27:59.917Z,8.338867
2023-06-26T04:28:29.927Z,8.291016
2023-06-26T04:28:59.925Z,8.06543
2023-06-26T04:29:29.924Z,7.974609
2023-06-26T04:29:59.921Z,7.871094
2023-06-26T04:30:29.935Z,7.919922
2023-06-26T04:30:59.918Z,7.875977
2023-06-26T04:31:29.959Z,7.652344
2023-06-26T04:32:00.024Z,7.901367
2023-06-26T04:32:29.970Z,7.866211
2023-06-26T04:33:00.041Z,7.65625
2023-06-26T04:33:29.926Z,7.408203
2023-06-26T04:33:59.926Z,7.826172
2023-06-26T04:34:29.931Z,7.825195
2023-06-26T04:34:59.928Z,7.776367
2023-06-26T04:35:29.922Z,7.728516
2023-06-26T04:35:59.925Z,7.608398
2023-06-26T04:36:29.953Z,7.751953
2023-06-26T04:36:59.920Z,8.260742
2023-06-26T04:37:29.932Z,8.175781
2023-06-26T04:37:59.919Z,7.93457
2023-06-26T04:38:29.925Z,7.72168
2023-06-26T04:38:59.920Z,7.391602
2023-06-26T04:39:29.922Z,7.250977
2023-06-26T04:39:59.938Z,7.170898
2023-06-26T04:40:29.923Z,6.792969
2023-06-26T04:40:59.922Z,6.820313
2023-06-26T04:41:29.929Z,6.775391
2023-06-26T04:41:59.925Z,7.230469
2023-06-26T04:42:29.925Z,7.358398
2023-06-26T04:42:59.919Z,8.243164
2023-06-26T04:43:29.939Z,8.817383
2023-06-26T04:43:59.923Z,8.453125
2023-06-26T04:44:29.936Z,8.392578
2023-06-26T04:44:59.934Z,8.404297
2023-06-26T04:45:29.947Z,7.694336
2023-06-26T04:45:59.960Z,8.193359
2023-06-26T04:46:29.996Z,8.333008
2023-06-26T04:46:59.921Z,8.105469
2023-06-26T04:47:29.981Z,8.567383
2023-06-26T04:47:59.965Z,8.103516
2023-06-26T04:48:29.927Z,7.986328
2023-06-26T04:48:59.932Z,7.858398
2023-06-26T04:49:29.925Z,7.791016
2023-06-26T04:49:59.948Z,7.661133
2023-06-26T04:50:29.933Z,7.485352
2023-06-26T04:51:00.059Z,7.404297
2023-06-26T04:51:29.967Z,7.986328
2023-06-26T04:51:59.930Z,8.774414
2023-06-26T04:52:29.932Z,9.083984
2023-06-26T04:52:59.947Z,9.492188
2023-06-26T04:53:29.934Z,9.121094
2023-06-26T04:53:59.929Z,8.930664
2023-06-26T04:54:29.933Z,8.505859
2023-06-26T04:54:59.940Z,7.775391
2023-06-26T04:55:29.960Z,7.967773
2023-06-26T04:55:59.933Z,8.443359
2023-06-26T04:56:29.932Z,8.654297
2023-06-26T04:56:59.928Z,8.875977
2023-06-26T04:57:29.928Z,8.577148
2023-06-26T04:57:59.941Z,8.789063
2023-06-26T04:58:29.938Z,9.072266
2023-06-26T04:58:59.928Z,8.610352
2023-06-26T04:59:29.930Z,8.282227
2023-06-26T04:59:59.927Z,8.038086
2023-06-26T05:00:29.932Z,8.043945
2023-06-26T05:01:00.015Z,8
2023-06-26T05:01:29.950Z,7.873047
2023-06-26T05:01:59.935Z,7.544922
2023-06-26T05:02:30.009Z,7.618164
2023-06-26T05:02:59.988Z,8.047852
2023-06-26T05:03:30.094Z,7.605469
2023-06-26T05:03:59.934Z,7.749023
2023-06-26T05:04:29.943Z,7.59668
2023-06-26T05:04:59.939Z,8.012695
2023-06-26T05:05:29.946Z,8.40332
2023-06-26T05:06:00.018Z,7.841797
2023-06-26T05:06:29.932Z,8.125977
2023-06-26T05:06:59.962Z,8.779297
2023-06-26T05:07:30.085Z,8.196289
2023-06-26T05:07:59.940Z,8.373047
2023-06-26T05:08:29.933Z,8.21875
2023-06-26T05:08:59.930Z,7.603516
2023-06-26T05:09:29.936Z,7.500977
2023-06-26T05:09:59.935Z,7.750977
2023-06-26T05:10:29.936Z,7.916992
2023-06-26T05:10:59.936Z,8.036133
2023-06-26T05:11:29.935Z,8.129883
2023-06-26T05:11:59.937Z,8.15332
2023-06-26T05:12:29.933Z,8.280273
2023-06-26T05:12:59.938Z,8.052734
2023-06-26T05:13:29.934Z,7.969727
2023-06-26T05:13:59.933Z,8.171875
2023-06-26T05:14:29.935Z,8.267578
2023-06-26T05:14:59.940Z,7.936523
2023-06-26T05:15:29.936Z,7.865234
2023-06-26T05:15:59.942Z,9.602539
2023-06-26T05:16:29.938Z,9.885742
2023-06-26T05:16:59.939Z,11.55469
2023-06-26T05:17:29.947Z,11.37012
2023-06-26T05:18:00.084Z,10.99609
2023-06-26T05:18:29.942Z,10.57813
2023-06-26T05:18:59.935Z,10.78809
2023-06-26T05:19:29.951Z,9.455078
2023-06-26T05:19:59.942Z,10.05859
2023-06-26T05:20:29.952Z,10.0459
2023-06-26T05:20:59.935Z,10.07031
2023-06-26T05:21:29.935Z,10.08301
2023-06-26T05:21:59.935Z,9.789063
2023-06-26T05:22:29.938Z,9.919922
2023-06-26T05:22:59.943Z,10.04102
2023-06-26T05:23:29.953Z,10.5459
2023-06-26T05:23:59.941Z,11.06934
2023-06-26T05:24:29.946Z,10.87109
2023-06-26T05:24:59.941Z,10.99512
2023-06-26T05:25:29.938Z,10.85449
2023-06-26T05:25:59.940Z,10.04688
2023-06-26T05:26:29.949Z,9.945313
2023-06-26T05:26:59.937Z,9.431641
2023-06-26T05:27:29.941Z,10.12988
2023-06-26T05:27:59.940Z,10.35156
2023-06-26T05:28:29.949Z,10.07715
2023-06-26T05:28:59.938Z,10.39258
2023-06-26T05:29:29.954Z,10.44824
2023-06-26T05:29:59.937Z,10.33984
2023-06-26T05:30:29.954Z,10.63184
2023-06-26T05:30:59.986Z,10.77148
2023-06-26T05:31:30.079Z,8.833984
2023-06-26T05:31:59.943Z,8.679688
2023-06-26T05:32:30.024Z,7.875977
2023-06-26T05:33:00.007Z,7.96875
2023-06-26T05:33:29.959Z,8.578125
2023-06-26T05:33:59.944Z,8.311523
2023-06-26T05:34:29.973Z,7.87793
2023-06-26T05:35:00.138Z,7.859375
2023-06-26T05:35:30.094Z,7.638672
2023-06-26T05:35:59.942Z,6.918945
2023-06-26T05:36:29.954Z,6.983398
2023-06-26T05:36:59.949Z,7.487305
2023-06-26T05:37:29.944Z,7.023438
2023-06-26T05:37:59.949Z,7.024414
2023-06-26T05:38:29.975Z,7.321289
2023-06-26T05:38:59.948Z,7.561523
2023-06-26T05:39:29.986Z,7.025391
2023-06-26T05:39:59.947Z,7.071289
2023-06-26T05:40:29.949Z,6.881836
2023-06-26T05:40:59.946Z,7.00293
2023-06-26T05:41:29.946Z,7.12207
2023-06-26T05:41:59.956Z,6.932617
2023-06-26T05:42:29.965Z,6.697266
2023-06-26T05:42:59.949Z,6.72168
2023-06-26T05:43:29.956Z,7.054688
2023-06-26T05:43:59.953Z,7.358398
2023-06-26T05:44:29.951Z,7.72168
2023-06-26T05:44:59.954Z,7.859375
2023-06-26T05:45:29.954Z,7.869141
2023-06-26T05:45:59.953Z,7.833984
2023-06-26T05:46:29.960Z,7.573242
2023-06-26T05:47:00.001Z,7.396484
2023-06-26T05:47:30.093Z,6.887695
2023-06-26T05:48:00.046Z,6.855469
2023-06-26T05:48:29.999Z,6.702148
2023-06-26T05:48:59.958Z,6.682617
2023-06-26T05:49:29.979Z,6.717773
2023-06-26T05:49:59.954Z,6.885742
2023-06-26T05:50:29.964Z,7.351563
2023-06-26T05:50:59.972Z,7.203125
2023-06-26T05:51:29.961Z,7.186523
2023-06-26T05:51:59.966Z,7.601563
2023-06-26T05:52:29.962Z,7.302734
2023-06-26T05:52:59.953Z,6.743164
2023-06-26T05:53:29.956Z,6.770508